Time;durP1;ratioP1;P1;durP2;ratioP2;P2;SDS_P1;SDS_P2;PMS_P1;PMS_P2;Temp;Humidity;BMP_temperature;BMP_pressure;BME280_temperature;BME280_humidity;BME280_pressure;Samples;Min_cycle;Max_cycle;Signal;HPM_P1;HPM_P2
2023/05/07 00:01:41;;;;;;;2.55;2.05;;;13.50;99.90;;;13.24;100.00;97135.09;4866281;29;20070;-38
2023/05/07 00:04:07;;;;;;;3.13;2.22;;;13.50;99.90;;;13.24;100.00;97127.16;4867505;29;20041;-39
2023/05/07 00:06:33;;;;;;;3.25;2.40;;;13.50;99.90;;;13.23;100.00;97134.25;4868386;29;20037;-39
2023/05/07 00:08:59;;;;;;;4.40;2.90;;;13.50;99.90;;;13.21;100.00;97133.47;4868307;29;20120;-38
2023/05/07 00:11:25;;;;;;;5.50;3.13;;;13.50;99.90;;;13.14;100.00;97130.28;4868299;29;20490;-39
2023/05/07 00:13:51;;;;;;;5.47;3.22;;;13.40;99.90;;;13.08;100.00;97124.44;4862872;29;20036;-39
2023/05/07 00:16:17;;;;;;;5.28;3.53;;;13.40;99.90;;;13.02;100.00;97130.91;4860047;29;20037;-40
2023/05/07 00:18:43;;;;;;;4.65;3.13;;;13.30;99.90;;;12.96;100.00;97137.38;4861067;29;20089;-40
2023/05/07 00:21:08;;;;;;;5.68;2.92;;;13.20;99.90;;;12.90;100.00;97132.41;4860241;29;20093;-39
2023/05/07 00:23:34;;;;;;;5.18;3.20;;;13.20;99.90;;;12.88;100.00;97136.03;4860428;29;20415;-38
2023/05/07 00:26:00;;;;;;;5.43;3.20;;;13.10;99.90;;;12.81;100.00;97132.84;4868256;29;20490;-39
2023/05/07 00:28:25;;;;;;;7.40;2.95;;;13.10;99.90;;;12.76;100.00;97126.94;4870815;29;20494;-39
2023/05/07 00:30:51;;;;;;;4.50;3.10;;;13.10;99.90;;;12.72;100.00;97126.25;4866788;29;20104;-39
2023/05/07 00:33:17;;;;;;;3.80;2.78;;;13.00;99.90;;;12.68;100.00;97123.81;4853615;29;20079;-40
2023/05/07 00:35:43;;;;;;;4.10;2.95;;;13.00;99.90;;;12.61;100.00;97120.59;4870179;29;20047;-39
2023/05/07 00:38:08;;;;;;;5.43;3.05;;;12.90;99.90;;;12.58;100.00;97118.13;4864882;29;20953;-39
2023/05/07 00:40:34;;;;;;;4.63;3.28;;;12.80;99.90;;;12.56;100.00;97119.97;4866559;29;20028;-38
2023/05/07 00:43:00;;;;;;;4.63;3.33;;;12.80;99.90;;;12.44;100.00;97102.94;4867289;29;20029;-39
2023/05/07 00:45:28;;;;;;;4.53;3.50;;;12.80;99.90;;;12.49;100.00;97114.16;4863072;29;20564;-39
2023/05/07 00:47:59;;;;;;;4.57;3.42;;;12.70;99.90;;;12.46;100.00;97113.44;4863631;29;20055;-39
2023/05/07 00:50:26;;;;;;;4.73;3.40;;;12.70;99.90;;;12.40;100.00;97104.88;4868399;29;20105;-38
2023/05/07 00:52:52;;;;;;;5.35;3.40;;;12.70;99.90;;;12.39;100.00;97102.31;4865006;29;20068;-40
2023/05/07 00:55:19;;;;;;;5.80;3.50;;;12.60;99.90;;;12.37;100.00;97107.66;4853862;29;20036;-39
2023/05/07 00:57:45;;;;;;;6.28;3.72;;;12.60;99.90;;;12.36;100.00;97105.09;4863941;29;20033;-39
2023/05/07 01:00:12;;;;;;;5.60;3.28;;;12.60;99.90;;;12.36;100.00;97105.09;4868723;29;20143;-39
2023/05/07 01:02:39;;;;;;;5.60;3.25;;;12.60;99.90;;;12.30;100.00;97103.59;4870359;29;20033;-38
2023/05/07 01:05:11;;;;;;;5.53;3.10;;;12.60;99.90;;;12.30;100.00;97098.31;4870178;29;20096;-38
2023/05/07 01:07:38;;;;;;;5.22;3.35;;;12.60;99.90;;;12.34;100.00;97107.81;4853248;29;20089;-39
2023/05/07 01:10:06;;;;;;;6.03;3.38;;;12.60;99.90;;;12.31;100.00;97100.03;4853309;29;20698;-39
2023/05/07 01:12:33;;;;;;;4.75;3.55;;;12.60;99.90;;;12.34;100.00;97112.25;4846234;29;20036;-39
2023/05/07 01:14:59;;;;;;;5.22;3.50;;;12.60;99.90;;;12.28;100.00;97105.47;4850689;29;20045;-39
2023/05/07 01:17:24;;;;;;;5.68;3.67;;;12.60;99.90;;;12.29;100.00;97108.97;4862638;29;20052;-39
2023/05/07 01:19:50;;;;;;;5.38;3.35;;;12.60;99.90;;;12.20;100.00;97103.19;4863773;29;20068;-40
2023/05/07 01:22:32;;;;;;;4.72;3.42;;;12.50;99.90;;;12.22;100.00;97109.28;4846242;29;20080;-39
2023/05/07 01:24:59;;;;;;;5.45;3.35;;;12.50;99.90;;;12.21;100.00;97104.06;4849742;29;20077;-38
2023/05/07 01:27:25;;;;;;;7.07;3.78;;;12.50;99.90;;;12.17;100.00;97100.69;4857619;29;20036;-39
2023/05/07 01:29:51;;;;;;;6.03;3.58;;;12.40;99.90;;;12.13;100.00;97099.13;4863546;29;20025;-39
2023/05/07 01:32:23;;;;;;;5.18;3.38;;;12.40;99.90;;;12.15;100.00;97107.84;4866557;29;20048;-40
2023/05/07 01:34:50;;;;;;;5.68;3.58;;;12.40;99.90;;;12.14;100.00;97102.63;4863294;29;20032;-38
2023/05/07 01:39:56;;;;;;;4.40;3.55;;;12.40;99.90;;;12.08;100.00;97102.91;4873214;29;20053;-40
2023/05/07 01:42:22;;;;;;;4.05;3.30;;;12.40;99.90;;;12.06;100.00;97100.38;4877509;29;20072;-39
2023/05/07 01:44:48;;;;;;;5.45;3.67;;;12.30;99.90;;;12.06;100.00;97102.13;4873159;29;20120;-39
2023/05/07 01:47:14;;;;;;;5.90;3.53;;;12.30;99.90;;;12.06;100.00;97096.84;4878652;29;20024;-38
2023/05/07 01:49:41;;;;;;;4.45;3.28;;;12.30;99.90;;;12.04;100.00;97088.97;4876439;29;20478;-39
2023/05/07 01:52:08;;;;;;;5.28;3.30;;;12.40;99.90;;;12.07;100.00;97093.28;4862587;29;20130;-39
2023/05/07 01:54:33;;;;;;;5.05;3.55;;;12.40;99.90;;;12.11;100.00;97103.63;4873334;29;20550;-39
2023/05/07 01:56:59;;;;;;;6.32;3.47;;;12.40;99.90;;;12.12;100.00;97096.56;4879794;29;20041;-38
2023/05/07 01:59:25;;;;;;;6.15;3.78;;;12.40;99.90;;;12.14;100.00;97098.19;4876000;29;20032;-38
2023/05/07 02:01:51;;;;;;;5.50;3.55;;;12.50;99.90;;;12.16;100.00;97098.13;4877606;29;20056;-39
2023/05/07 02:04:17;;;;;;;4.03;3.28;;;12.50;99.90;;;12.21;100.00;97106.69;4859647;29;20040;-39
2023/05/07 02:06:43;;;;;;;5.20;3.53;;;12.50;99.90;;;12.22;100.00;97101.34;4856956;29;20043;-39
2023/05/07 02:09:09;;;;;;;4.10;3.08;;;12.50;99.90;;;12.23;100.00;97099.53;4877564;29;20119;-39
2023/05/07 02:11:35;;;;;;;4.95;3.17;;;12.50;99.90;;;12.22;100.00;97105.75;4873603;29;20070;-38
2023/05/07 02:14:00;;;;;;;5.10;3.20;;;12.50;99.90;;;12.21;100.00;97099.59;4857459;29;20040;-40
2023/05/07 02:16:26;;;;;;;3.90;3.10;;;12.50;99.90;;;12.21;100.00;97101.41;4874309;29;20068;-39
2023/05/07 02:18:52;;;;;;;4.85;3.13;;;12.50;99.90;;;12.21;100.00;97101.41;4875564;29;20036;-40
2023/05/07 02:21:17;;;;;;;3.33;2.80;;;12.50;99.90;;;12.20;100.00;97104.97;4875794;29;20037;-39
2023/05/07 02:23:43;;;;;;;4.20;3.03;;;12.50;99.90;;;12.11;100.00;97092.19;4876126;29;20035;-39
2023/05/07 02:26:10;;;;;;;5.97;2.67;;;12.50;99.90;;;12.17;100.00;97105.13;4875694;29;20158;-40
2023/05/07 02:28:36;;;;;;;4.82;3.05;;;12.50;99.90;;;12.18;100.00;97109.47;4872363;29;20474;-38
2023/05/07 02:31:05;;;;;;;3.47;2.30;;;12.50;99.90;;;12.19;100.00;97103.28;4876960;29;20379;-40
2023/05/07 02:33:30;;;;;;;4.50;3.00;;;12.50;99.90;;;12.08;100.00;97087.94;4877638;29;20131;-39
2023/05/07 02:35:56;;;;;;;3.70;2.72;;;12.40;99.90;;;12.14;100.00;97100.00;4874352;29;20430;-40
2023/05/07 02:38:23;;;;;;;6.93;3.53;;;12.40;99.90;;;12.01;100.00;97090.00;4877700;29;20478;-40
2023/05/07 02:40:48;;;;;;;4.30;3.13;;;12.40;99.90;;;12.00;100.00;97095.34;4875770;29;20039;-40
2023/05/07 02:43:14;;;;;;;3.88;2.67;;;12.30;99.90;;;11.94;100.00;97104.44;4876498;29;20037;-39
2023/05/07 02:45:40;;;;;;;4.53;2.90;;;12.20;99.90;;;11.89;100.00;97102.91;4870595;29;20021;-39
2023/05/07 02:48:06;;;;;;;5.05;3.35;;;12.20;99.90;;;11.28;100.00;97010.59;4876243;29;20080;-39
2023/05/07 02:50:32;;;;;;;4.45;3.25;;;12.10;99.90;;;11.73;100.00;97103.59;4865573;29;20125;-40
2023/05/07 02:52:58;;;;;;;4.40;2.85;;;12.00;99.90;;;11.67;100.00;97106.53;4875455;29;20040;-40
2023/05/07 02:55:24;;;;;;;5.03;3.53;;;12.00;99.90;;;11.63;100.00;97100.53;4877392;29;20479;-39
2023/05/07 02:57:49;;;;;;;4.45;3.25;;;11.90;99.90;;;11.54;100.00;97094.81;4877377;29;20297;-40
2023/05/07 03:00:18;;;;;;;4.50;3.63;;;11.90;99.90;;;11.55;100.00;97100.03;4878373;29;20103;-40
2023/05/07 03:02:44;;;;;;;6.05;3.65;;;11.90;99.90;;;11.53;100.00;97099.25;4879885;29;20052;-40
2023/05/07 03:05:11;;;;;;;5.63;3.65;;;11.80;99.90;;;11.40;100.00;97077.81;4875519;29;20035;-38
2023/05/07 03:07:37;;;;;;;4.55;3.70;;;11.80;99.90;;;11.49;100.00;97089.75;4876628;29;20151;-38
2023/05/07 03:10:04;;;;;;;7.20;3.85;;;11.80;99.90;;;11.46;100.00;97081.97;4877520;29;20038;-38
2023/05/07 03:12:30;;;;;;;4.63;3.60;;;11.80;99.90;;;11.43;100.00;97074.19;4876197;29;20045;-39
2023/05/07 03:14:55;;;;;;;6.47;3.70;;;11.70;99.90;;;11.37;100.00;97063.91;4875001;29;20039;-39
2023/05/07 03:17:21;;;;;;;5.53;3.50;;;11.70;99.90;;;11.34;100.00;97067.56;4877161;29;20441;-39
2023/05/07 03:19:47;;;;;;;5.43;3.40;;;11.70;99.90;;;11.33;100.00;97064.97;4878129;29;20622;-39
2023/05/07 03:22:13;;;;;;;5.07;3.20;;;11.60;99.90;;;11.30;100.00;97073.03;4875364;29;20051;-40
2023/05/07 03:24:38;;;;;;;4.95;3.78;;;11.60;99.90;;;11.23;100.00;97070.69;4874973;29;20442;-38
2023/05/07 03:27:04;;;;;;;4.78;3.75;;;11.60;99.90;;;11.24;100.00;97080.28;4878100;29;20253;-39
2023/05/07 03:29:30;;;;;;;5.18;3.70;;;11.60;99.90;;;11.20;100.00;97073.44;4876382;29;20072;-39
2023/05/07 03:31:56;;;;;;;5.90;3.33;;;11.50;99.90;;;10.99;100.00;97045.38;4874212;29;20040;-39
2023/05/07 03:34:22;;;;;;;4.88;3.35;;;11.50;99.90;;;11.10;100.00;97073.94;4880994;29;20060;-38
2023/05/07 03:36:51;;;;;;;4.72;3.05;;;11.50;99.90;;;11.13;100.00;97085.19;4873671;29;20032;-38
2023/05/07 03:39:17;;;;;;;4.85;3.17;;;11.40;99.90;;;11.04;100.00;97070.63;4875612;29;20300;-39
2023/05/07 03:41:42;;;;;;;4.50;3.20;;;11.40;99.90;;;11.08;100.00;97084.53;4877134;29;20040;-38
2023/05/07 03:44:08;;;;;;;3.85;3.03;;;11.40;99.90;;;11.06;100.00;97081.97;4880060;29;20076;-39
2023/05/07 03:46:34;;;;;;;4.38;2.95;;;11.40;99.90;;;11.04;100.00;97080.34;4872600;29;20327;-38
2023/05/07 03:49:00;;;;;;;4.32;3.17;;;11.40;99.90;;;11.04;100.00;97080.34;4872877;29;20058;-38
2023/05/07 03:51:26;;;;;;;5.25;3.42;;;11.40;99.90;;;11.02;100.00;97083.03;4877972;29;20032;-38
2023/05/07 03:53:56;;;;;;;5.22;3.35;;;11.30;99.90;;;11.02;100.00;97090.94;4876644;29;20033;-39
2023/05/07 03:56:26;;;;;;;5.13;3.33;;;11.30;99.90;;;11.02;100.00;97090.94;4881236;29;20183;-39
2023/05/07 03:58:52;;;;;;;7.45;3.88;;;11.30;99.90;;;10.97;100.00;97079.75;4875560;29;20045;-39
2023/05/07 04:01:18;;;;;;;5.55;3.67;;;11.30;99.90;;;11.03;100.00;97084.72;4876667;29;20047;-40
2023/05/07 04:03:43;;;;;;;4.80;3.30;;;11.30;99.90;;;11.03;100.00;97084.72;4879264;29;20418;-39
2023/05/07 04:06:09;;;;;;;4.15;3.20;;;11.30;99.90;;;11.05;100.00;97084.66;4879313;29;20190;-39
2023/05/07 04:08:35;;;;;;;4.90;4.03;;;11.40;99.90;;;11.07;100.00;97083.69;4873686;29;21054;-39
2023/05/07 04:11:01;;;;;;;4.82;3.45;;;11.40;99.90;;;11.10;100.00;97090.59;4878446;29;20035;-39
2023/05/07 04:13:26;;;;;;;4.93;3.20;;;11.40;99.90;;;11.04;100.00;97091.75;4880440;29;20032;-39
2023/05/07 04:15:53;;;;;;;6.70;3.75;;;11.40;99.90;;;11.14;100.00;97094.81;4872535;29;20478;-39
2023/05/07 04:18:19;;;;;;;5.68;3.75;;;11.50;99.90;;;10.95;100.00;97060.47;4877156;29;20073;-39
2023/05/07 04:20:45;;;;;;;7.45;3.70;;;11.50;99.90;;;11.18;100.00;97099.06;4877116;29;20088;-38
2023/05/07 04:23:11;;;;;;;5.15;3.20;;;11.50;99.90;;;11.20;100.00;97097.19;4878233;29;20037;-39
2023/05/07 04:25:36;;;;;;;5.78;3.78;;;11.50;99.90;;;11.24;100.00;97104.06;4876440;29;20035;-39
2023/05/07 04:28:02;;;;;;;4.60;3.40;;;11.60;99.90;;;11.26;100.00;97102.19;4878998;29;20089;-39
2023/05/07 04:30:28;;;;;;;4.43;3.78;;;11.60;99.90;;;11.30;100.00;97105.56;4878614;29;20060;-40
2023/05/07 04:32:54;;;;;;;4.97;3.53;;;11.60;99.90;;;11.35;100.00;97113.28;4877514;29;20493;-39
2023/05/07 04:35:19;;;;;;;4.78;3.88;;;11.60;99.90;;;11.38;100.00;97103.44;4878389;29;20357;-40
2023/05/07 04:37:45;;;;;;;6.70;3.80;;;11.70;99.90;;;11.44;100.00;97104.94;4876422;29;20036;-39
2023/05/07 04:40:11;;;;;;;5.43;3.53;;;11.80;99.90;;;11.49;100.00;97102.97;4880383;29;20483;-40
2023/05/07 04:42:36;;;;;;;4.78;3.60;;;11.80;99.90;;;11.55;100.00;97110.59;4874189;29;20124;-37
2023/05/07 04:45:04;;;;;;;6.85;3.67;;;11.90;99.90;;;11.64;100.00;97110.16;4879382;29;20036;-38
2023/05/07 04:47:30;;;;;;;7.28;4.10;;;11.90;99.90;;;11.70;100.00;97105.53;4873801;29;23256;-39
2023/05/07 04:49:57;;;;;;;4.78;3.75;;;12.00;99.90;;;11.75;100.00;97111.47;4872322;29;20136;-39
2023/05/07 04:52:22;;;;;;;6.07;3.67;;;12.10;99.90;;;11.78;100.00;97113.97;4870606;29;20092;-39
2023/05/07 04:54:48;;;;;;;6.25;4.03;;;12.10;99.90;;;11.76;100.00;97121.13;4881812;29;20458;-38
2023/05/07 04:57:14;;;;;;;6.82;3.60;;;12.10;99.90;;;11.77;100.00;97123.69;4879675;29;20039;-39
2023/05/07 04:59:39;;;;;;;4.35;2.97;;;12.10;99.90;;;11.77;100.00;97125.47;4870867;29;20158;-39
2023/05/07 05:02:05;;;;;;;4.75;3.10;;;12.10;99.90;;;11.73;100.00;97110.69;4879551;29;20422;-39
2023/05/07 05:04:31;;;;;;;5.55;2.95;;;12.10;99.90;;;11.70;100.00;97111.69;4874274;29;20044;-39
2023/05/07 05:06:57;;;;;;;7.63;3.75;;;12.10;99.90;;;11.76;100.00;97123.75;4875779;29;20025;-39
2023/05/07 05:09:23;;;;;;;7.60;3.92;;;12.10;99.90;;;11.77;100.00;97123.69;4877352;29;20035;-40
2023/05/07 05:11:49;;;;;;;5.25;3.55;;;12.10;99.90;;;11.79;100.00;97131.53;4874432;29;20032;-41
2023/05/07 05:14:14;;;;;;;6.97;3.30;;;12.10;99.90;;;11.80;100.00;97134.09;4875936;29;20039;-40
2023/05/07 05:16:40;;;;;;;4.50;3.53;;;12.10;99.90;;;11.87;100.00;97139.13;4873914;29;20413;-40
2023/05/07 05:19:06;;;;;;;5.30;3.70;;;12.20;99.90;;;11.93;100.00;97138.84;4876492;29;20033;-41
2023/05/07 05:21:32;;;;;;;4.93;3.75;;;12.30;99.90;;;12.03;100.00;97134.84;4875926;29;20239;-41
2023/05/07 05:23:58;;;;;;;5.45;4.00;;;12.30;99.90;;;12.13;100.00;97125.56;4876763;29;20037;-40
2023/05/07 05:26:24;;;;;;;7.20;4.10;;;12.50;99.90;;;12.27;100.00;97132.81;4879308;29;20033;-42
2023/05/07 05:28:49;;;;;;;4.45;3.55;;;12.60;99.90;;;12.41;100.00;97140.09;4879513;29;20508;-42
2023/05/07 05:31:16;;;;;;;4.75;3.08;;;12.70;99.90;;;12.60;100.00;97148.00;4875975;29;20043;-40
2023/05/07 05:33:42;;;;;;;4.22;3.53;;;12.90;99.90;;;12.80;100.00;97152.31;4876038;29;20259;-40
2023/05/07 05:36:10;;;;;;;4.97;3.78;;;13.10;99.90;;;12.98;100.00;97153.19;4878046;29;20033;-39
2023/05/07 05:38:36;;;;;;;5.22;3.35;;;13.20;99.90;;;13.11;100.00;97151.59;4875152;29;20132;-41
2023/05/07 05:41:02;;;;;;;4.57;3.63;;;13.40;99.90;;;13.28;100.00;97144.56;4880084;29;20127;-41
2023/05/07 05:43:27;;;;;;;4.63;3.67;;;13.50;99.90;;;13.42;100.00;97138.59;4881341;29;20048;-41
2023/05/07 05:45:53;;;;;;;6.38;4.05;;;13.70;99.90;;;13.54;100.00;97148.56;4874421;29;20060;-40
2023/05/07 05:48:19;;;;;;;6.45;3.67;;;13.90;99.90;;;13.63;100.00;97142.75;4875993;29;20036;-39
2023/05/07 05:50:45;;;;;;;6.65;3.55;;;13.90;99.90;;;13.65;100.00;97154.13;4874621;29;20025;-40
2023/05/07 05:53:10;;;;;;;5.13;3.25;;;13.90;99.90;;;13.63;100.00;97152.50;4878652;29;20482;-39
2023/05/07 05:55:36;;;;;;;4.47;2.95;;;13.90;99.90;;;13.54;100.00;97133.50;4875252;29;20041;-40
2023/05/07 05:58:02;;;;;;;4.57;3.20;;;13.90;99.90;;;13.74;100.00;97155.44;4859296;29;20048;-39
2023/05/07 06:00:29;;;;;;;4.15;3.28;;;14.00;99.90;;;13.83;100.00;97160.25;4856902;29;20036;-40
2023/05/07 06:02:54;;;;;;;4.82;3.13;;;14.10;99.90;;;14.03;100.00;97159.19;4865031;29;21502;-39
2023/05/07 06:05:20;;;;;;;6.07;3.50;;;14.30;99.90;;;14.23;100.00;97158.09;4873130;29;20036;-39
2023/05/07 06:07:46;;;;;;;3.97;3.03;;;14.50;99.90;;;14.48;100.00;97157.56;4876140;29;20115;-39
2023/05/07 06:10:11;;;;;;;3.70;3.05;;;14.70;99.90;;;14.70;100.00;97173.16;4876752;29;20060;-40
2023/05/07 06:12:37;;;;;;;5.78;3.63;;;14.90;99.90;;;14.79;100.00;97170.91;4873899;29;20219;-40
2023/05/07 06:15:03;;;;;;;5.03;3.20;;;15.00;99.90;;;14.78;100.00;97179.81;4876446;29;20124;-40
2023/05/07 06:17:30;;;;;;;5.03;3.25;;;15.00;99.90;;;14.63;100.00;97155.88;4858941;29;20056;-39
2023/05/07 06:19:56;;;;;;;4.55;3.10;;;14.90;99.90;;;14.56;100.00;97173.03;4872646;29;20154;-41
2023/05/07 06:22:21;;;;;;;4.05;2.67;;;14.80;99.90;;;14.43;100.00;97166.72;4871796;29;20497;-39
2023/05/07 06:24:47;;;;;;;3.90;2.35;;;14.70;99.90;;;14.33;100.00;97167.22;4859599;29;20033;-42
2023/05/07 06:27:13;;;;;;;4.13;2.92;;;14.50;99.90;;;14.18;100.00;97154.81;4869733;29;20047;-42
2023/05/07 06:29:38;;;;;;;4.03;2.55;;;14.50;99.90;;;14.23;100.00;97168.69;4871818;29;20577;-41
2023/05/07 06:32:08;;;;;;;6.07;2.97;;;14.50;99.90;;;14.20;100.00;97179.47;4875625;29;20044;-40
2023/05/07 06:34:34;;;;;;;3.70;2.97;;;14.40;99.90;;;14.20;100.00;97174.16;4874392;29;20060;-41
2023/05/07 06:39:25;;;;;;;6.22;3.00;;;14.50;99.90;;;14.32;100.00;97165.53;4870050;23;20413;-40
2023/05/07 06:41:51;;;;;;;3.15;2.70;;;14.60;99.90;;;14.46;100.00;97175.38;4855879;29;20096;-40
2023/05/07 06:44:16;;;;;;;3.97;2.95;;;14.70;99.90;;;14.61;100.00;97173.69;4866212;29;20036;-40
2023/05/07 06:46:42;;;;;;;4.35;3.45;;;14.90;99.90;;;14.73;100.00;97180.06;4867281;29;20048;-41
2023/05/07 06:49:08;;;;;;;5.82;3.47;;;14.90;99.90;;;14.86;100.00;97183.75;4879969;29;20028;-40
2023/05/07 06:51:33;;;;;;;5.53;3.90;;;15.10;99.90;;;15.10;100.00;97175.28;4874384;29;20395;-40
2023/05/07 06:53:59;;;;;;;5.18;3.60;;;15.30;99.90;;;15.34;100.00;97172.13;4876911;29;20072;-41
2023/05/07 06:56:25;;;;;;;5.93;3.63;;;15.60;99.90;;;15.70;100.00;97184.13;4871689;29;20374;-40
2023/05/07 06:58:51;;;;;;;5.00;3.38;;;15.80;99.90;;;16.02;100.00;97182.19;4872472;29;20033;-40
2023/05/07 07:01:16;;;;;;;4.90;3.50;;;16.10;99.90;;;16.33;100.00;97182.91;4875258;29;20089;-40
2023/05/07 07:03:42;;;;;;;3.55;2.85;;;16.40;99.90;;;16.68;100.00;97174.47;4873951;29;20487;-40
2023/05/07 07:06:08;;;;;;;4.90;3.47;;;16.70;99.90;;;16.98;100.00;97176.97;4878165;29;20068;-40
2023/05/07 07:08:34;;;;;;;5.90;3.38;;;16.90;99.90;;;17.28;100.00;97182.03;4876058;29;20439;-41
2023/05/07 07:11:00;;;;;;;6.60;3.47;;;17.20;99.90;;;17.60;100.00;97176.31;4876817;29;20032;-41
2023/05/07 07:13:26;;;;;;;6.18;3.65;;;17.50;99.90;;;17.83;100.00;97181.88;4873096;29;20132;-40
2023/05/07 07:15:53;;;;;;;5.05;3.30;;;17.70;99.90;;;18.10;100.00;97173.78;4871266;29;20489;-40
2023/05/07 07:18:18;;;;;;;4.53;3.25;;;17.90;99.90;;;18.18;95.49;97175.88;4875006;29;20029;-41
2023/05/07 07:20:44;;;;;;;3.50;3.17;;;18.10;99.90;;;18.21;94.13;97175.66;4872066;29;20060;-41
2023/05/07 07:23:10;;;;;;;3.20;2.72;;;18.20;99.90;;;18.43;93.71;97167.84;4878193;29;20448;-41
2023/05/07 07:25:36;;;;;;;3.42;2.47;;;18.40;99.90;;;18.73;90.82;97173.72;4875567;29;20085;-42
2023/05/07 07:28:01;;;;;;;5.05;2.70;;;18.60;99.90;;;18.89;86.98;97172.47;4875601;29;20094;-41
2023/05/07 07:30:27;;;;;;;5.80;3.03;;;18.90;99.90;;;19.08;83.58;97168.47;4878552;29;20060;-42
2023/05/07 07:32:53;;;;;;;4.10;3.00;;;19.20;99.90;;;19.25;85.03;97181.38;4875547;29;20451;-39
2023/05/07 07:35:19;;;;;;;4.00;2.55;;;19.40;99.90;;;19.38;84.16;97170.63;4875098;29;20448;-39
2023/05/07 07:37:45;;;;;;;3.33;2.88;;;19.60;99.90;;;19.57;80.37;97175.41;4875202;29;20040;-39
2023/05/07 07:40:11;;;;;;;3.88;2.75;;;19.80;99.90;;;19.87;78.50;97183.91;4877874;29;20068;-39
2023/05/07 07:42:37;;;;;;;6.57;3.40;;;20.00;99.90;;;20.01;77.38;97168.44;4876937;29;20501;-39
2023/05/07 07:45:04;;;;;;;5.63;3.13;;;20.20;99.90;;;20.27;75.85;97176.22;4879097;29;20043;-41
2023/05/07 07:47:29;;;;;;;5.55;3.30;;;20.50;99.90;;;20.46;74.58;97186.31;4878205;29;20503;-40
2023/05/07 07:49:55;;;;;;;3.80;3.28;;;20.70;99.90;;;20.68;72.96;97180.09;4878620;29;20044;-40
2023/05/07 07:52:21;;;;;;;4.47;3.60;;;20.80;99.90;;;20.80;72.43;97183.63;4880306;29;20434;-40
2023/05/07 07:54:46;;;;;;;4.53;2.80;;;21.00;99.90;;;20.96;71.72;97180.50;4877648;29;20049;-40
2023/05/07 07:57:12;;;;;;;5.20;3.28;;;21.10;99.90;;;21.04;70.74;97177.22;4879776;29;20039;-40
2023/05/07 07:59:38;;;;;;;4.63;3.50;;;21.20;99.90;;;21.06;67.85;97192.19;4878054;29;20029;-40
2023/05/07 08:02:03;;;;;;;4.68;3.55;;;21.30;99.90;;;20.97;75.65;97187.56;4879700;29;20124;-41
2023/05/07 08:04:30;;;;;;;4.00;3.15;;;21.30;99.90;;;21.07;73.31;97174.28;4878194;29;20029;-40
2023/05/07 08:06:55;;;;;;;3.95;3.03;;;21.20;99.90;;;21.07;71.80;97187.69;4878141;29;20477;-41
2023/05/07 08:09:21;;;;;;;4.50;3.17;;;21.30;99.90;;;21.16;71.69;97186.91;4880386;29;20041;-39
2023/05/07 08:11:47;;;;;;;4.55;3.03;;;21.30;99.90;;;21.21;70.46;97187.38;4879370;29;20085;-39
2023/05/07 08:14:13;;;;;;;5.30;2.95;;;21.40;99.90;;;21.27;69.76;97186.88;4880193;29;20058;-39
2023/05/07 08:16:38;;;;;;;3.58;2.95;;;21.40;99.90;;;21.24;66.29;97188.94;4879147;29;20033;-39
2023/05/07 08:19:04;;;;;;;4.45;3.25;;;21.40;99.90;;;21.23;66.79;97190.78;4877100;29;20032;-40
2023/05/07 08:21:30;;;;;;;4.43;3.22;;;21.50;99.90;;;21.25;67.20;97191.50;4877066;29;20058;-40
2023/05/07 08:23:56;;;;;;;3.00;2.58;;;21.40;99.90;;;21.33;66.96;97194.38;4861869;29;20041;-40
2023/05/07 08:26:22;;;;;;;3.97;2.63;;;21.40;99.90;;;21.44;66.68;97190.78;4877948;29;20040;-39
2023/05/07 08:28:47;;;;;;;6.75;2.80;;;21.50;99.90;;;21.52;64.94;97187.50;4878965;29;20037;-41
2023/05/07 08:31:13;;;;;;;4.38;3.20;;;21.60;99.90;;;21.52;62.56;97187.50;4882367;29;20096;-39
2023/05/07 08:33:39;;;;;;;5.03;2.53;;;21.70;99.90;;;21.35;64.83;97186.22;4879162;29;20048;-40
2023/05/07 08:36:05;;;;;;;3.80;2.38;;;21.50;99.90;;;21.24;71.04;97186.28;4869087;29;20862;-40
2023/05/07 08:38:31;;;;;;;4.00;2.50;;;21.40;99.90;;;21.09;68.57;97180.38;4880127;29;20041;-41
2023/05/07 08:40:57;;;;;;;4.13;2.72;;;21.20;99.90;;;20.98;71.13;97183.94;4875372;29;20405;-39
2023/05/07 08:43:27;;;;;;;3.15;2.60;;;21.10;99.90;;;20.90;69.47;97189.06;4880641;29;20035;-40
2023/05/07 08:45:55;;;;;;;3.85;2.80;;;21.10;99.90;;;20.96;68.88;97192.09;4875295;29;20489;-39
2023/05/07 08:48:25;;;;;;;3.95;2.70;;;21.00;99.90;;;20.91;67.74;97196.97;4861360;29;20025;-40
2023/05/07 08:50:51;;;;;;;4.72;2.33;;;21.10;99.90;;;20.98;69.22;97191.97;4873816;29;20033;-40
2023/05/07 08:53:17;;;;;;;2.50;1.90;;;21.10;99.90;;;21.12;68.26;97189.00;4878013;29;20080;-40
2023/05/07 08:55:42;;;;;;;3.15;2.40;;;21.20;99.90;;;21.27;67.19;97194.06;4879366;29;20489;-40
2023/05/07 08:58:08;;;;;;;2.80;2.40;;;21.40;99.90;;;21.36;69.59;97193.28;4870588;29;20037;-42
2023/05/07 09:00:36;;;;;;;5.60;2.50;;;21.50;99.90;;;21.47;65.33;97187.88;4874311;29;20040;-40
2023/05/07 09:03:01;;;;;;;2.22;1.90;;;21.60;99.90;;;21.62;64.98;97187.56;4878509;29;20528;-42
2023/05/07 09:05:27;;;;;;;4.82;2.50;;;21.80;99.90;;;21.70;64.35;97193.97;4876220;29;20047;-40
2023/05/07 09:07:54;;;;;;;6.22;1.88;;;21.80;99.90;;;21.85;65.96;97186.44;4875552;29;20037;-40
2023/05/07 09:10:21;;;;;;;3.25;2.20;;;21.90;99.90;;;21.90;66.27;97178.84;4878904;29;20783;-40
2023/05/07 09:12:47;;;;;;;3.60;2.42;;;22.10;99.90;;;21.77;59.91;97170.16;4876973;29;20036;-40
2023/05/07 09:15:13;;;;;;;3.78;2.20;;;22.10;99.90;;;21.87;62.92;97189.84;4878630;29;20122;-39
2023/05/07 09:17:41;;;;;;;2.65;1.85;;;22.00;99.90;;;21.89;60.96;97181.66;4874429;29;20043;-41
2023/05/07 09:20:08;;;;;;;2.72;1.90;;;22.00;99.90;;;21.90;63.20;97181.53;4875357;29;20095;-40
2023/05/07 09:22:36;;;;;;;3.95;1.90;;;22.10;99.90;;;21.94;63.58;97179.44;4872757;29;20495;-39
2023/05/07 09:25:02;;;;;;;3.10;1.90;;;22.10;99.90;;;21.82;62.23;97165.25;4874949;29;20069;-40
2023/05/07 09:27:28;;;;;;;2.15;1.73;;;22.00;99.90;;;21.93;63.71;97167.84;4877348;29;20040;-40
2023/05/07 09:29:53;;;;;;;3.17;2.10;;;22.00;99.90;;;21.96;65.74;97157.81;4875259;29;20718;-39
2023/05/07 09:32:19;;;;;;;2.10;1.60;;;22.10;99.90;;;22.10;64.11;97170.91;4880845;29;20055;-39
2023/05/07 09:34:47;;;;;;;3.72;1.90;;;22.20;99.90;;;22.11;59.14;97162.72;4877075;29;20426;-40
2023/05/07 09:37:14;;;;;;;2.28;1.90;;;22.20;99.90;;;22.08;57.52;97162.13;4878406;29;20027;-40
2023/05/07 09:39:45;;;;;;;2.97;1.65;;;22.20;99.90;;;22.10;59.03;97163.69;4879545;29;20056;-41
2023/05/07 09:42:12;;;;;;;3.63;1.83;;;22.20;99.90;;;22.16;60.85;97162.28;4876998;29;20095;-39
2023/05/07 09:44:38;;;;;;;1.85;1.40;;;22.20;99.90;;;22.22;61.01;97161.75;4881238;29;20043;-40
2023/05/07 09:47:08;;;;;;;2.53;1.92;;;22.30;99.90;;;22.29;61.40;97157.59;4875580;29;20151;-40
2023/05/07 09:49:36;;;;;;;3.03;1.90;;;22.40;99.90;;;22.32;56.13;97161.81;4875545;29;20047;-40
2023/05/07 09:52:10;;;;;;;2.78;1.65;;;22.50;99.90;;;22.26;55.50;97163.22;4877467;29;20581;-40
2023/05/07 09:54:38;;;;;;;2.25;1.52;;;22.40;99.90;;;22.29;56.31;97162.13;4875005;29;20131;-40
2023/05/07 09:57:05;;;;;;;3.55;1.83;;;22.40;99.90;;;22.33;54.96;97168.06;4872404;29;20032;-40
2023/05/07 09:59:32;;;;;;;2.45;1.70;;;22.50;99.90;;;22.37;54.95;97167.63;4878939;29;20069;-39
2023/05/07 10:02:00;;;;;;;1.80;1.55;;;22.50;99.90;;;22.47;54.63;97165.84;4859992;29;20458;-39
2023/05/07 10:04:26;;;;;;;3.55;1.60;;;22.60;99.90;;;22.52;53.70;97159.19;4877479;29;20032;-40
2023/05/07 10:06:53;;;;;;;2.30;1.63;;;22.60;99.90;;;22.58;61.70;97156.81;4876033;29;20064;-39
2023/05/07 10:09:20;;;;;;;2.28;1.80;;;22.70;99.90;;;22.57;57.16;97149.72;4861396;29;20474;-41
2023/05/07 10:11:48;;;;;;;2.72;1.73;;;22.70;99.90;;;22.65;53.91;97152.59;4876502;29;20497;-40
2023/05/07 10:14:15;;;;;;;3.00;1.70;;;22.80;99.90;;;22.77;53.83;97152.47;4876744;29;20032;-39
2023/05/07 10:16:41;;;;;;;2.45;1.70;;;22.90;99.90;;;22.90;53.36;97153.06;4860534;29;20083;-40